Guilford, New York
Current Conditions -  °F | °C
As of 2:53 AM on Friday 19 Dec 2014 (Local Time) from KBGM Reporting Station
Haze Haze  
Wind Chill: 17°   Ceiling: 800
Heat Index: 26°   Visibility: 6mi
Dew Point: 24°   Wind: 9mph
Humidity: 92%   Direction: 310°NW
Pressure: 29.96"   Gusts: NA
Location:  42.4°N, 75.49°W
Report Text: KBGM 190753Z AUTO 31008KT 6SM BR OVC008 M03/M04 A2996 RMK AO2 UPB24E27FZRAB27E48 CIG 005V012 SLP163 P0000 T10331044 $
Loading
Personal Weather Stations






























Interactive Weather Map New forecast layout! Learn more

10-Day Weather Forecast

Advertisements
Track Severe Weather on mobile